Time;durP1;ratioP1;P1;durP2;ratioP2;P2;SDS_P1;SDS_P2;PMS_P1;PMS_P2;Temp;Humidity;BMP_temperature;BMP_pressure;BME280_temperature;BME280_humidity;BME280_pressure;Samples;Min_cycle;Max_cycle;Signal;HPM_P1;HPM_P2
2022/05/30 00:00:57;;;;;;;8.07;1.17;;;;;;;8.97;76.29;101218.47;5115534;28;20042;-86
2022/05/30 00:03:22;;;;;;;5.50;0.80;;;;;;;8.92;77.13;101214.47;5115660;28;20032;-86
2022/05/30 00:05:49;;;;;;;3.00;0.83;;;;;;;8.82;77.96;101210.44;5115825;28;20095;-86
2022/05/30 00:08:17;;;;;;;3.28;0.80;;;;;;;8.78;78.80;101212.69;5115217;28;20034;-85
2022/05/30 00:10:43;;;;;;;6.80;0.98;;;;;;;8.72;79.12;101202.63;5115738;28;20032;-86
2022/05/30 00:13:09;;;;;;;5.30;1.13;;;;;;;8.65;78.89;101208.00;5115172;28;20437;-86
2022/05/30 00:15:36;;;;;;;10.88;1.33;;;;;;;8.61;79.42;101204.00;5098669;28;20122;-86
2022/05/30 00:18:02;;;;;;;5.70;1.10;;;;;;;8.60;78.76;101224.78;5115312;28;20031;-86
2022/05/30 00:20:31;;;;;;;10.95;1.23;;;;;;;8.58;78.69;101213.34;5116872;28;20122;-85
2022/05/30 00:23:03;;;;;;;7.37;1.17;;;;;;;8.59;79.71;101208.75;5114967;28;20426;-86
2022/05/30 00:25:28;;;;;;;9.90;1.40;;;;;;;8.59;79.44;101206.91;5117343;28;20039;-86
2022/05/30 00:27:54;;;;;;;6.63;1.10;;;;;;;8.62;79.87;101204.84;5114851;28;20019;-86
2022/05/30 00:30:19;;;;;;;9.13;1.40;;;;;;;8.66;80.02;101209.66;5115044;28;20028;-86
2022/05/30 00:32:45;;;;;;;4.93;1.30;;;;;;;8.67;79.50;101205.94;5116415;28;20031;-86
2022/05/30 00:35:14;;;;;;;5.17;1.30;;;;;;;8.65;79.00;101199.91;5114844;28;20055;-86
2022/05/30 00:37:39;;;;;;;6.53;1.17;;;;;;;8.68;79.23;101199.50;5115232;28;20047;-86
2022/05/30 00:40:06;;;;;;;5.33;1.23;;;;;;;8.71;80.00;101206.38;5097849;28;20484;-86
2022/05/30 00:42:33;;;;;;;9.18;1.20;;;;;;;8.70;80.14;101205.53;5114651;28;20048;-86
2022/05/30 00:45:00;;;;;;;8.32;1.27;;;;;;;8.70;80.53;101197.44;5115675;28;20027;-86
2022/05/30 00:47:37;;;;;;;10.95;1.20;;;;;;;8.71;80.44;101195.53;5114505;28;20020;-86
2022/05/30 00:50:03;;;;;;;6.50;1.00;;;;;;;8.72;80.32;101195.34;5116368;28;20497;-86
2022/05/30 00:52:36;;;;;;;7.33;1.30;;;;;;;8.73;80.85;101190.78;5114334;28;20031;-86
2022/05/30 00:55:09;;;;;;;4.35;1.10;;;;;;;8.71;80.37;101196.41;5116246;28;20056;-85
2022/05/30 00:57:36;;;;;;;4.63;1.02;;;;;;;8.68;80.72;101190.53;5115172;28;20109;-86
2022/05/30 01:00:10;;;;;;;5.57;1.40;;;;;;;8.65;80.36;101193.63;5114380;28;20036;-86
2022/05/30 01:02:37;;;;;;;7.15;1.60;;;;;;;8.63;80.95;101195.69;5114746;28;20376;-86
2022/05/30 01:07:49;;;;;;;9.70;1.55;;;;;;;8.53;81.09;101183.34;5115206;28;20038;-86
2022/05/30 01:10:18;;;;;;;6.72;1.10;;;;;;;8.52;81.43;101192.47;5114924;28;20028;-86
2022/05/30 01:12:49;;;;;;;5.13;1.37;;;;;;;8.46;81.40;101187.84;5114528;28;20035;-86
2022/05/30 01:15:17;;;;;;;8.20;1.50;;;;;;;8.43;81.76;101189.03;5114441;28;20122;-86
2022/05/30 01:17:55;;;;;;;10.43;2.35;;;;;;;8.42;81.52;101186.53;5114460;28;20111;-86
2022/05/30 01:20:56;;;;;;;5.13;1.23;;;;;;;8.39;81.82;101189.63;5114274;28;20027;-86
2022/05/30 01:23:40;;;;;;;6.95;1.65;;;;;;;8.36;82.26;101184.59;5106777;28;20031;-86
2022/05/30 01:26:38;;;;;;;5.53;1.40;;;;;;;8.34;81.87;101194.75;5116190;28;20060;-86
2022/05/30 01:29:05;;;;;;;11.40;1.50;;;;;;;8.30;82.88;101185.34;5115850;28;20027;-86
2022/05/30 01:31:31;;;;;;;9.30;1.70;;;;;;;8.27;83.12;101183.88;5114277;28;20032;-86
2022/05/30 01:33:59;;;;;;;5.35;1.48;;;;;;;8.28;83.35;101176.59;5114985;28;20038;-86
2022/05/30 01:36:27;;;;;;;5.93;1.57;;;;;;;8.27;83.61;101181.19;5113912;28;20035;-86
2022/05/30 01:38:55;;;;;;;8.23;1.50;;;;;;;8.25;84.33;101177.81;5114025;28;20486;-87
2022/05/30 01:41:21;;;;;;;7.25;1.67;;;;;;;8.29;84.43;101173.69;5114846;28;20063;-87
2022/05/30 01:43:47;;;;;;;5.63;1.48;;;;;;;8.28;84.50;101171.19;5113750;28;20092;-86
2022/05/30 01:46:17;;;;;;;12.00;1.80;;;;;;;8.29;84.56;101167.47;5113489;28;20035;-86
2022/05/30 01:48:43;;;;;;;7.60;1.83;;;;;;;8.28;84.53;101171.19;5114269;28;20053;-86
2022/05/30 01:51:08;;;;;;;9.73;2.45;;;;;;;8.30;84.95;101171.81;5113566;28;20023;-86
2022/05/30 01:53:34;;;;;;;9.97;2.20;;;;;;;8.34;84.58;101176.69;5113607;28;20131;-86
2022/05/30 01:56:02;;;;;;;7.53;1.43;;;;;;;8.35;85.00;101170.22;5112942;28;20115;-86
2022/05/30 01:58:28;;;;;;;6.50;2.03;;;;;;;8.37;84.78;101164.63;5096526;28;20285;-86
2022/05/30 02:01:01;;;;;;;7.60;1.92;;;;;;;8.37;84.90;101162.78;5113340;28;20357;-86
2022/05/30 02:03:27;;;;;;;8.13;1.30;;;;;;;8.40;85.37;101161.53;5115040;28;20031;-86
2022/05/30 02:05:52;;;;;;;8.60;1.65;;;;;;;8.38;84.73;101164.41;5113348;28;20106;-86
2022/05/30 02:08:21;;;;;;;13.20;1.93;;;;;;;8.41;84.31;101165.91;5114884;27;20092;-86
2022/05/30 02:10:50;;;;;;;7.38;1.95;;;;;;;8.38;84.31;101167.13;5096934;28;20445;-86
2022/05/30 02:13:15;;;;;;;11.35;1.98;;;;;;;8.38;84.64;101172.53;5114230;28;20118;-86
2022/05/30 02:18:27;;;;;;;12.23;2.28;;;;;;;8.38;84.99;101164.41;5115120;28;20050;-86
2022/05/30 02:20:52;;;;;;;8.73;2.50;;;;;;;8.35;85.08;101159.41;5096232;28;20028;-86
2022/05/30 02:23:21;;;;;;;7.90;2.23;;;;;;;8.33;85.75;101160.66;5114122;28;20156;-87
2022/05/30 02:25:48;;;;;;;9.25;2.20;;;;;;;8.31;86.17;101157.28;5114091;28;20031;-86
2022/05/30 02:28:14;;;;;;;7.30;2.40;;;;;;;8.32;85.94;101161.66;5113030;28;20463;-86
2022/05/30 02:30:42;;;;;;;11.10;2.15;;;;;;;8.34;86.41;101165.00;5113262;28;20028;-86
2022/05/30 02:38:36;;;;;;;10.88;3.08;;;;;;;8.22;87.08;101153.88;5114596;28;20506;-86
2022/05/30 02:41:04;;;;;;;9.23;2.80;;;;;;;8.17;87.61;101154.44;5112513;28;20055;-87
2022/05/30 02:43:29;;;;;;;10.43;2.95;;;;;;;8.16;88.05;101154.66;5112557;28;20434;-87
2022/05/30 02:45:57;;;;;;;10.20;3.00;;;;;;;8.11;88.66;101147.13;5112705;28;20111;-87
2022/05/30 02:48:23;;;;;;;8.68;3.03;;;;;;;8.07;87.96;101149.38;5112725;28;20032;-87
2022/05/30 02:50:49;;;;;;;11.00;3.93;;;;;;;8.03;88.74;101152.63;5114102;28;20027;-87
2022/05/30 02:53:17;;;;;;;9.82;4.13;;;;;;;8.01;88.86;101152.81;5112769;28;20024;-87
2022/05/30 02:55:43;;;;;;;7.85;3.38;;;;;;;7.94;89.29;101153.78;5112468;28;20051;-87
2022/05/30 02:58:08;;;;;;;8.00;3.20;;;;;;;7.93;89.41;101147.53;5112376;28;20035;-87
2022/05/30 03:00:36;;;;;;;9.10;3.60;;;;;;;7.86;89.18;101150.16;5113947;28;20219;-87
2022/05/30 03:03:05;;;;;;;14.20;4.00;;;;;;;7.83;89.51;101158.66;5112672;28;20023;-87
2022/05/30 03:05:30;;;;;;;6.22;3.38;;;;;;;7.77;89.67;101154.00;5113956;28;20031;-86
2022/05/30 03:07:56;;;;;;;14.63;4.03;;;;;;;7.71;90.18;101155.59;5113732;28;20035;-86
2022/05/30 03:10:22;;;;;;;14.57;3.90;;;;;;;7.66;90.16;101157.19;5099709;28;20118;-86
2022/05/30 03:12:47;;;;;;;14.90;4.10;;;;;;;7.65;90.73;101160.94;5116643;28;20081;-86
2022/05/30 03:15:13;;;;;;;12.00;4.50;;;;;;;7.62;90.88;101161.28;5116196;28;20277;-86
2022/05/30 03:17:38;;;;;;;12.60;3.53;;;;;;;7.62;90.94;101163.97;5116500;28;20032;-87
2022/05/30 03:20:06;;;;;;;7.63;3.40;;;;;;;7.60;91.06;101163.34;5116200;28;20027;-86
2022/05/30 03:22:31;;;;;;;13.90;4.20;;;;;;;7.59;90.77;101161.66;5116517;28;20047;-87
2022/05/30 03:24:57;;;;;;;13.20;4.05;;;;;;;7.61;91.34;101170.44;5118535;28;20121;-86
2022/05/30 03:27:22;;;;;;;11.33;4.30;;;;;;;7.57;91.45;101163.72;5098917;28;20368;-86
2022/05/30 03:29:48;;;;;;;10.17;3.53;;;;;;;7.53;91.53;101169.50;5116138;28;20039;-86
2022/05/30 03:32:13;;;;;;;14.13;4.40;;;;;;;7.52;91.35;101169.69;5117826;28;20432;-86
2022/05/30 03:34:38;;;;;;;10.67;4.00;;;;;;;7.46;91.46;101160.47;5116555;28;20031;-86
2022/05/30 03:37:09;;;;;;;11.13;4.07;;;;;;;7.45;91.14;101166.06;5116106;28;20031;-86
2022/05/30 03:39:38;;;;;;;10.75;3.80;;;;;;;7.41;91.63;101173.69;5117784;28;20344;-87
2022/05/30 03:42:04;;;;;;;10.00;4.40;;;;;;;7.41;nan;101181.81;5115693;28;20043;-87
2022/05/30 03:44:29;;;;;;;13.40;4.05;;;;;;;7.36;91.88;101182.34;5098774;28;20027;-85
2022/05/30 03:46:55;;;;;;;12.70;3.83;;;;;;;7.42;92.03;101190.72;5117014;28;20058;-87
2022/05/30 03:49:20;;;;;;;17.87;4.40;;;;;;;7.43;92.01;101184.31;5116941;28;20032;-86
2022/05/30 03:51:46;;;;;;;10.43;3.93;;;;;;;7.44;92.37;101185.97;5099283;28;20035;-86
2022/05/30 03:54:14;;;;;;;9.52;3.80;;;;;;;7.48;92.43;101181.88;5116345;28;20035;-86
2022/05/30 03:56:39;;;;;;;14.47;4.50;;;;;;;7.49;93.07;101180.88;5117072;28;20471;-86
2022/05/30 03:59:06;;;;;;;14.10;4.15;;;;;;;7.52;92.34;101186.72;5115718;28;20035;-86
2022/05/30 04:01:33;;;;;;;11.20;4.03;;;;;;;7.52;91.74;101181.31;5098735;28;20032;-86
2022/05/30 04:03:59;;;;;;;15.27;4.20;;;;;;;7.56;91.69;101184.50;5116723;28;20122;-86
2022/05/30 04:06:24;;;;;;;19.33;4.10;;;;;;;7.60;91.16;101187.66;5115243;28;20118;-86
2022/05/30 04:08:50;;;;;;;11.98;4.30;;;;;;;7.64;91.76;101180.84;5117090;28;20027;-86
2022/05/30 04:11:17;;;;;;;12.60;4.43;;;;;;;7.69;92.15;101178.41;5115512;28;20037;-87
2022/05/30 04:13:43;;;;;;;12.20;3.55;;;;;;;7.68;91.35;101174.88;5116493;28;20027;-86
2022/05/30 04:16:11;;;;;;;8.73;4.33;;;;;;;7.75;91.31;101183.09;5116901;28;20049;-86
2022/05/30 04:18:37;;;;;;;9.57;4.20;;;;;;;7.78;91.01;101173.75;5116131;28;20035;-87
2022/05/30 04:21:06;;;;;;;14.55;4.43;;;;;;;7.78;90.74;101166.50;5114897;28;20015;-87
2022/05/30 04:23:32;;;;;;;13.35;4.28;;;;;;;7.78;90.93;101168.34;5116060;28;20031;-87
2022/05/30 04:25:57;;;;;;;9.40;4.90;;;;;;;7.75;91.18;101163.31;5116435;28;20465;-87
2022/05/30 04:28:23;;;;;;;11.17;4.30;;;;;;;7.73;91.03;101168.91;5115434;28;20029;-87
2022/05/30 04:30:48;;;;;;;11.10;4.72;;;;;;;7.71;91.07;101179.06;5116049;28;20089;-87
2022/05/30 04:33:24;;;;;;;19.27;5.33;;;;;;;7.68;91.72;101179.47;5115010;28;20057;-87
2022/05/30 04:35:52;;;;;;;13.55;4.15;;;;;;;7.63;91.38;101177.31;5098799;28;20472;-87
2022/05/30 04:38:20;;;;;;;12.95;4.55;;;;;;;7.58;91.38;101176.22;5114690;28;20088;-87
2022/05/30 04:40:45;;;;;;;11.23;4.25;;;;;;;7.54;91.26;101173.03;5114722;28;20052;-87
2022/05/30 04:43:13;;;;;;;11.27;5.00;;;;;;;7.54;91.34;101184.69;5114169;28;20032;-87
2022/05/30 04:45:41;;;;;;;16.10;4.43;;;;;;;7.50;91.25;101180.69;5098483;28;20043;-87
2022/05/30 04:48:10;;;;;;;14.90;4.53;;;;;;;7.51;91.67;101192.31;5114319;28;20027;-86
2022/05/30 04:50:38;;;;;;;17.45;4.72;;;;;;;7.46;92.34;101198.28;5115689;28;20079;-86
2022/05/30 04:53:06;;;;;;;13.35;4.63;;;;;;;7.47;92.60;101191.84;5116184;28;20035;-86
2022/05/30 04:55:31;;;;;;;10.45;4.60;;;;;;;7.48;91.85;101198.06;5098067;28;20440;-87
2022/05/30 04:57:57;;;;;;;9.83;4.47;;;;;;;7.46;91.81;101189.34;5114710;28;20034;-86
2022/05/30 05:00:24;;;;;;;16.13;4.60;;;;;;;7.45;92.06;101201.97;5114135;28;20497;-87
2022/05/30 05:02:52;;;;;;;12.57;5.05;;;;;;;7.46;91.98;101198.28;5115801;28;20023;-86
2022/05/30 05:05:17;;;;;;;13.40;5.20;;;;;;;7.53;91.70;101196.50;5114466;28;20097;-86
2022/05/30 05:08:00;;;;;;;15.97;5.73;;;;;;;7.59;92.33;101186.81;5114294;28;20164;-86
2022/05/30 05:10:56;;;;;;;14.75;4.78;;;;;;;7.72;91.97;101183.44;5115361;28;20471;-83
2022/05/30 05:13:24;;;;;;;12.75;4.68;;;;;;;7.86;91.13;101195.25;5093850;28;20491;-88
2022/05/30 05:15:56;;;;;;;14.90;5.40;;;;;;;8.02;91.00;101192.34;5113915;28;20031;-88
2022/05/30 05:18:21;;;;;;;11.98;5.22;;;;;;;8.24;90.67;101193.19;5114240;28;20047;-88
2022/05/30 05:20:50;;;;;;;16.63;4.30;;;;;;;8.38;89.41;101199.56;5113958;28;20108;-89
2022/05/30 05:23:16;;;;;;;13.32;4.88;;;;;;;8.53;88.42;101196.88;5114048;28;20081;-83
2022/05/30 05:25:41;;;;;;;11.57;4.80;;;;;;;8.69;87.60;101198.44;5113972;28;20065;-84
2022/05/30 05:28:11;;;;;;;13.60;4.80;;;;;;;8.85;87.65;101202.75;5113908;28;20481;-85
2022/05/30 05:30:40;;;;;;;10.18;4.35;;;;;;;9.04;86.57;101203.13;5096071;28;20502;-84
2022/05/30 05:33:08;;;;;;;13.48;5.00;;;;;;;9.19;85.26;101205.72;5114946;28;20468;-84
2022/05/30 05:35:33;;;;;;;12.77;4.23;;;;;;;9.29;84.34;101198.09;5113709;28;20114;-83
2022/05/30 05:38:00;;;;;;;12.45;4.30;;;;;;;9.37;84.03;101205.22;5113660;28;20443;-83
2022/05/30 05:40:28;;;;;;;11.63;4.60;;;;;;;9.44;83.43;101211.50;5096568;28;20032;-84
2022/05/30 05:42:54;;;;;;;13.52;4.53;;;;;;;9.41;82.53;101204.63;5113935;28;20147;-83
2022/05/30 05:45:20;;;;;;;9.23;3.90;;;;;;;9.46;83.13;101206.72;5114396;28;20067;-83
2022/05/30 05:47:45;;;;;;;13.57;3.80;;;;;;;9.54;82.69;101214.69;5113307;28;20039;-83
2022/05/30 05:50:13;;;;;;;10.37;3.50;;;;;;;9.58;81.16;101207.84;5115066;28;20036;-83
2022/05/30 05:52:39;;;;;;;11.07;3.50;;;;;;;9.64;81.68;101209.75;5096644;28;20134;-85
2022/05/30 05:55:05;;;;;;;11.47;3.60;;;;;;;9.71;81.46;101217.91;5114367;28;20074;-83
2022/05/30 05:57:30;;;;;;;7.53;3.00;;;;;;;9.77;81.04;101224.41;5113660;28;20548;-83
2022/05/30 05:59:56;;;;;;;7.30;3.43;;;;;;;9.77;80.60;101218.97;5113145;28;20048;-85
2022/05/30 06:02:23;;;;;;;10.40;3.38;;;;;;;9.84;80.93;101217.97;5113520;28;20478;-83
2022/05/30 06:04:52;;;;;;;9.93;3.20;;;;;;;9.95;80.34;101224.72;5113219;28;20043;-83
2022/05/30 06:07:18;;;;;;;14.95;3.17;;;;;;;9.98;79.32;101220.72;5096715;28;20126;-83
2022/05/30 06:09:46;;;;;;;7.88;2.47;;;;;;;10.01;79.04;101218.47;5113160;28;20043;-83
2022/05/30 06:12:11;;;;;;;9.20;2.22;;;;;;;10.00;77.88;101222.22;5114309;28;20031;-83
2022/05/30 06:14:37;;;;;;;10.73;2.77;;;;;;;10.01;78.15;101226.59;5114504;28;20028;-83
2022/05/30 06:17:03;;;;;;;9.77;2.70;;;;;;;9.98;78.08;101226.16;5112746;28;20031;-83
2022/05/30 06:19:28;;;;;;;10.38;2.53;;;;;;;9.92;76.80;101225.13;5095820;28;20046;-84
2022/05/30 06:21:54;;;;;;;10.43;2.67;;;;;;;9.90;77.07;101220.94;5096121;28;20101;-82
2022/05/30 06:24:20;;;;;;;8.07;2.17;;;;;;;9.84;76.69;101214.44;5095128;28;20475;-83
2022/05/30 06:26:46;;;;;;;6.37;2.20;;;;;;;9.84;76.49;101219.84;5112511;28;20036;-83
2022/05/30 06:29:13;;;;;;;5.47;1.45;;;;;;;9.84;72.84;101226.09;5112464;28;20057;-83
2022/05/30 06:31:40;;;;;;;5.32;1.40;;;;;;;9.80;73.65;101214.00;5111699;28;20092;-83
2022/05/30 06:34:05;;;;;;;8.20;1.40;;;;;;;9.83;74.58;101220.88;5113610;28;20023;-83
2022/05/30 06:36:31;;;;;;;9.20;1.73;;;;;;;9.87;74.77;101219.44;5096027;28;20069;-83
2022/05/30 06:39:00;;;;;;;6.72;1.83;;;;;;;9.90;75.31;101218.22;5113779;28;20046;-84
2022/05/30 06:41:29;;;;;;;4.65;1.30;;;;;;;9.94;74.31;101222.19;5114176;28;20059;-83
2022/05/30 06:43:57;;;;;;;4.60;1.67;;;;;;;9.97;74.69;101224.50;5119142;28;20024;-83
2022/05/30 06:46:24;;;;;;;4.28;1.40;;;;;;;9.97;72.06;101227.22;5120243;28;20073;-83
2022/05/30 06:48:54;;;;;;;7.50;1.23;;;;;;;9.97;72.84;101224.50;5120167;28;20442;-83
2022/05/30 06:51:23;;;;;;;9.10;1.52;;;;;;;10.03;72.36;101226.41;5119446;28;20459;-83
2022/05/30 06:53:48;;;;;;;4.43;1.20;;;;;;;10.07;71.91;101233.09;5119410;28;20035;-82
2022/05/30 06:56:16;;;;;;;5.97;1.30;;;;;;;10.17;70.85;101233.56;5119479;28;20049;-83
2022/05/30 06:58:46;;;;;;;6.63;1.42;;;;;;;10.37;71.19;101229.25;5119379;28;20054;-83
2022/05/30 07:01:11;;;;;;;6.87;1.13;;;;;;;10.67;69.78;101225.16;5121308;27;20067;-82
2022/05/30 07:03:38;;;;;;;5.22;1.05;;;;;;;11.05;66.69;101229.13;5119633;28;20085;-83
2022/05/30 07:06:13;;;;;;;7.03;1.60;;;;;;;11.45;66.42;101230.97;5119372;28;20032;-84
2022/05/30 07:08:44;;;;;;;5.35;1.10;;;;;;;11.96;65.15;101229.38;5119993;28;20035;-84
2022/05/30 07:11:10;;;;;;;4.10;1.10;;;;;;;12.38;62.39;101216.22;5120614;27;20034;-84
2022/05/30 07:13:35;;;;;;;6.23;1.03;;;;;;;12.83;61.30;101221.56;5119585;28;20031;-85
2022/05/30 07:16:01;;;;;;;6.63;0.90;;;;;;;13.11;58.76;101218.41;5118923;28;20060;-84
2022/05/30 07:18:29;;;;;;;4.40;0.60;;;;;;;13.28;57.69;101215.09;5119029;28;20050;-84
2022/05/30 07:20:59;;;;;;;4.60;0.85;;;;;;;13.38;58.85;101215.44;5119225;28;20061;-84
2022/05/30 07:23:25;;;;;;;7.38;0.95;;;;;;;13.49;55.55;101222.91;5119966;28;20027;-85
2022/05/30 07:25:57;;;;;;;5.63;0.70;;;;;;;13.64;55.24;101221.66;5119229;28;20023;-84
2022/05/30 07:28:25;;;;;;;4.50;1.13;;;;;;;13.70;55.21;101228.97;5119387;28;20485;-85
2022/05/30 07:30:51;;;;;;;4.13;0.73;;;;;;;13.51;54.07;101226.22;5119087;28;20023;-84
2022/05/30 07:33:17;;;;;;;5.07;0.65;;;;;;;13.43;54.70;101223.75;5102178;28;20027;-84
2022/05/30 07:35:43;;;;;;;4.35;0.80;;;;;;;13.35;55.20;101223.25;5118794;28;20076;-85
2022/05/30 07:38:09;;;;;;;4.73;0.60;;;;;;;13.33;54.29;101232.44;5119056;28;20039;-85
2022/05/30 07:40:34;;;;;;;5.80;1.60;;;;;;;13.35;54.05;101229.53;5118308;28;20062;-85
2022/05/30 07:43:00;;;;;;;2.07;0.70;;;;;;;13.39;53.27;101224.44;5119236;28;20027;-85
2022/05/30 07:45:25;;;;;;;3.97;0.75;;;;;;;13.48;53.10;101228.56;5119470;28;20038;-84
2022/05/30 07:47:51;;;;;;;7.27;0.70;;;;;;;13.51;52.42;101223.47;5102064;28;20107;-85
2022/05/30 07:50:16;;;;;;;6.97;1.10;;;;;;;13.53;51.19;101225.97;5102127;28;20472;-84
2022/05/30 07:52:42;;;;;;;3.92;0.70;;;;;;;13.69;53.18;101224.56;5119929;27;20387;-85
2022/05/30 07:55:10;;;;;;;5.27;0.70;;;;;;;13.80;51.26;101225.69;5114901;28;20029;-85
2022/05/30 07:57:50;;;;;;;4.00;0.80;;;;;;;13.81;50.95;101211.81;5116498;28;20058;-85
2022/05/30 08:00:17;;;;;;;4.60;0.82;;;;;;;13.72;50.54;101213.19;5117652;28;20111;-84
2022/05/30 08:02:43;;;;;;;4.03;0.97;;;;;;;13.80;51.01;101218.34;5115463;28;20165;-83
2022/05/30 08:05:11;;;;;;;3.47;0.98;;;;;;;14.15;51.30;101223.16;5115385;28;20134;-85
2022/05/30 08:07:37;;;;;;;5.65;0.80;;;;;;;14.54;49.72;101212.75;5115671;28;20036;-84
2022/05/30 08:10:08;;;;;;;2.70;0.80;;;;;;;14.91;49.09;101214.50;5115560;28;20046;-85
2022/05/30 08:12:33;;;;;;;5.25;0.70;;;;;;;15.26;49.70;101216.44;5115405;28;20030;-85
2022/05/30 08:14:59;;;;;;;5.63;1.00;;;;;;;15.51;49.73;101210.72;5114898;28;20031;-85
2022/05/30 08:17:28;;;;;;;3.37;0.77;;;;;;;15.75;49.38;101216.16;5116737;28;20352;-85
2022/05/30 08:19:53;;;;;;;4.85;0.98;;;;;;;15.74;46.15;101215.31;5114811;28;20020;-85
2022/05/30 08:22:19;;;;;;;3.87;0.90;;;;;;;15.56;46.53;101220.94;5115224;28;20028;-85
2022/05/30 08:24:51;;;;;;;3.58;0.80;;;;;;;15.09;45.63;101228.06;5116457;28;20020;-85
2022/05/30 08:27:16;;;;;;;3.30;0.70;;;;;;;14.76;44.55;101231.34;5115475;28;20497;-85
2022/05/30 08:29:45;;;;;;;3.33;0.70;;;;;;;14.55;46.35;101227.22;5115184;28;20126;-85
2022/05/30 08:32:14;;;;;;;4.82;0.80;;;;;;;14.43;46.28;101224.47;5114889;28;20102;-84
2022/05/30 08:34:43;;;;;;;3.13;0.75;;;;;;;14.38;47.02;101230.63;5114683;28;20038;-84
2022/05/30 08:37:11;;;;;;;4.63;0.80;;;;;;;14.34;48.22;101228.59;5115996;28;20070;-84
2022/05/30 08:42:28;;;;;;;4.25;0.80;;;;;;;14.74;48.48;101225.28;5116601;28;20140;-85
2022/05/30 08:44:57;;;;;;;5.95;0.98;;;;;;;14.73;47.29;101229.09;5115010;28;20399;-85
2022/05/30 08:47:46;;;;;;;4.80;0.90;;;;;;;15.00;48.73;101229.50;5114514;28;20023;-85
2022/05/30 08:50:25;;;;;;;3.57;0.80;;;;;;;14.90;49.19;101230.06;5114854;28;20111;-84
2022/05/30 08:53:16;;;;;;;8.02;1.15;;;;;;;14.84;48.81;101236.47;5116050;28;20051;-84
2022/05/30 08:56:12;;;;;;;2.80;0.85;;;;;;;14.64;47.97;101236.78;5115234;28;20047;-85
2022/05/30 08:58:43;;;;;;;3.85;1.00;;;;;;;14.49;47.45;101241.81;5113451;28;20092;-84
2022/05/30 09:01:22;;;;;;;4.43;1.13;;;;;;;14.37;47.70;101231.66;5115679;28;20034;-84
2022/05/30 09:04:09;;;;;;;3.33;1.03;;;;;;;14.24;46.04;101234.59;5114896;28;20034;-84
2022/05/30 09:06:42;;;;;;;2.30;0.85;;;;;;;14.27;46.46;101234.13;5113991;28;20352;-84
2022/05/30 09:09:27;;;;;;;4.72;1.05;;;;;;;14.38;47.25;101236.06;5114066;28;20032;-88
2022/05/30 09:11:59;;;;;;;3.55;0.60;;;;;;;14.45;46.98;101230.50;5114454;28;20464;-84
2022/05/30 09:14:37;;;;;;;2.90;0.93;;;;;;;14.76;47.21;101236.81;5114225;28;20024;-85
2022/05/30 09:17:09;;;;;;;2.83;0.90;;;;;;;15.06;44.47;101231.28;5113653;28;20024;-85
2022/05/30 09:19:35;;;;;;;2.65;0.60;;;;;;;15.49;44.36;101229.28;5115344;28;20023;-84
2022/05/30 09:22:04;;;;;;;5.95;1.40;;;;;;;16.02;43.69;101226.56;5113556;28;20088;-85
2022/05/30 09:24:33;;;;;;;2.47;0.77;;;;;;;16.08;42.57;101231.09;5115134;28;20035;-85
2022/05/30 09:27:01;;;;;;;2.57;0.93;;;;;;;16.37;42.17;101221.00;5113773;28;20046;-85
2022/05/30 09:29:57;;;;;;;4.38;0.77;;;;;;;16.66;42.79;101224.50;5113790;28;20030;-85
2022/05/30 09:32:35;;;;;;;4.43;1.00;;;;;;;16.60;40.25;101222.75;5114888;28;20035;-85
2022/05/30 09:35:24;;;;;;;1.35;0.60;;;;;;;16.50;41.95;101230.78;5115343;28;20467;-85
2022/05/30 09:38:05;;;;;;;2.95;0.95;;;;;;;16.42;40.94;101231.22;5114038;28;20035;-84
2022/05/30 09:40:53;;;;;;;2.20;0.80;;;;;;;16.44;41.17;101229.88;5115278;28;20059;-85
2022/05/30 09:43:23;;;;;;;8.23;2.97;;;;;;;16.60;40.64;101225.50;5113041;28;20046;-85
2022/05/30 09:45:49;;;;;;;3.53;1.00;;;;;;;16.55;39.53;101236.38;5113324;28;20039;-85
2022/05/30 09:48:19;;;;;;;2.13;0.80;;;;;;;16.23;40.89;101234.13;5114719;28;20028;-85
2022/05/30 09:50:48;;;;;;;3.22;0.90;;;;;;;15.79;40.95;101236.50;5114437;28;20023;-85
2022/05/30 09:53:41;;;;;;;2.58;1.10;;;;;;;15.73;42.90;101223.78;5113936;28;20076;-85
2022/05/30 09:56:09;;;;;;;4.00;0.80;;;;;;;15.43;42.00;101224.75;5113986;28;20031;-85
2022/05/30 09:58:48;;;;;;;2.60;0.73;;;;;;;15.35;42.71;101242.34;5113124;28;20476;-85
2022/05/30 10:01:24;;;;;;;6.07;1.10;;;;;;;15.26;43.82;101236.41;5110821;28;20607;-84
2022/05/30 10:03:54;;;;;;;4.15;1.20;;;;;;;15.22;42.23;101235.22;5113409;28;20380;-85
2022/05/30 10:06:26;;;;;;;4.95;1.20;;;;;;;15.09;43.27;101236.28;5112856;28;20031;-85
2022/05/30 10:09:13;;;;;;;5.90;1.20;;;;;;;15.11;44.05;101235.22;5114131;28;20035;-85
2022/05/30 10:11:41;;;;;;;1.42;0.80;;;;;;;15.16;42.44;101227.97;5112811;28;20061;-84
2022/05/30 10:14:21;;;;;;;4.63;0.90;;;;;;;15.44;43.88;101230.00;5113006;28;20490;-85
2022/05/30 10:16:49;;;;;;;4.47;1.08;;;;;;;15.42;42.45;101223.91;5112434;28;20122;-85
2022/05/30 10:19:30;;;;;;;2.47;0.95;;;;;;;15.51;42.96;101231.78;5114156;28;20026;-84
2022/05/30 10:28:37;;;;;;;3.20;1.00;;;;;;;16.55;41.84;101230.06;5114802;28;20093;-84
2022/05/30 10:31:16;;;;;;;6.97;1.27;;;;;;;16.96;41.20;101230.78;5113610;28;20123;-84
2022/05/30 10:33:58;;;;;;;8.20;1.13;;;;;;;17.23;39.81;101225.47;5113041;28;20111;-84
2022/05/30 10:37:06;;;;;;;3.90;0.77;;;;;;;17.56;39.69;101223.75;5114104;28;20043;-84
2022/05/30 10:39:50;;;;;;;4.47;0.70;;;;;;;17.38;37.42;101227.63;5112909;28;20027;-84
2022/05/30 10:42:27;;;;;;;3.23;0.70;;;;;;;17.14;35.89;101235.19;5112101;28;20130;-84
2022/05/30 10:45:01;;;;;;;1.88;0.75;;;;;;;17.26;36.84;101235.94;5112462;28;20092;-84
2022/05/30 10:47:38;;;;;;;5.88;0.90;;;;;;;17.40;36.42;101243.81;5112455;28;20043;-84
2022/05/30 10:50:10;;;;;;;2.42;0.80;;;;;;;18.00;35.94;101233.97;5112969;28;20035;-84
2022/05/30 10:52:39;;;;;;;2.33;0.93;;;;;;;19.13;33.91;101237.84;5112404;28;20028;-84
2022/05/30 10:55:38;;;;;;;11.33;1.30;;;;;;;20.25;33.63;101236.00;5113384;28;20036;-84
2022/05/30 10:58:43;;;;;;;5.35;0.90;;;;;;;20.44;33.32;101237.13;5113681;28;20099;-85
2022/05/30 11:01:24;;;;;;;1.83;0.85;;;;;;;20.07;31.50;101229.88;5112093;28;20044;-84
2022/05/30 11:04:03;;;;;;;4.75;1.10;;;;;;;19.93;31.45;101225.94;5114554;28;20046;-84
2022/05/30 11:06:33;;;;;;;2.35;0.90;;;;;;;19.48;32.44;101233.69;5112695;28;20032;-84
2022/05/30 11:09:03;;;;;;;4.37;0.97;;;;;;;19.25;33.71;101233.00;5112825;28;20421;-84
2022/05/30 11:11:43;;;;;;;6.78;1.48;;;;;;;18.87;36.22;101242.31;5113769;28;20059;-84
2022/05/30 11:14:30;;;;;;;4.72;1.40;;;;;;;18.04;38.19;101240.59;5112379;28;20096;-84
2022/05/30 11:17:08;;;;;;;3.28;1.42;;;;;;;17.50;38.86;101233.81;5112615;28;20474;-85
2022/05/30 11:19:56;;;;;;;4.65;1.30;;;;;;;17.31;40.17;101232.44;5112194;28;20034;-84
2022/05/30 11:22:39;;;;;;;3.43;1.10;;;;;;;16.91;40.93;101236.22;5112530;28;20528;-84
2022/05/30 11:25:12;;;;;;;7.85;1.50;;;;;;;16.50;40.93;101241.75;5113725;28;20032;-84
2022/05/30 11:27:43;;;;;;;5.25;1.30;;;;;;;16.38;40.97;101244.53;5114181;28;20024;-84
2022/05/30 11:30:29;;;;;;;5.15;1.50;;;;;;;16.42;41.61;101247.63;5114997;28;20028;-84
2022/05/30 11:33:04;;;;;;;5.15;1.40;;;;;;;16.44;41.03;101243.56;5117022;28;20377;-84
2022/05/30 11:36:46;;;;;;;3.13;1.40;;;;;;;16.68;41.41;101240.69;5116314;28;20027;-84
2022/05/30 11:39:28;;;;;;;5.80;1.33;;;;;;;16.62;40.24;101239.81;5003687;28;20025;-85
2022/05/30 11:41:55;;;;;;;12.55;1.35;;;;;;;16.67;40.44;101242.63;5078030;28;20197;-84
2022/05/30 11:44:43;;;;;;;6.25;1.50;;;;;;;16.86;40.50;101245.16;5098770;28;20035;-84
2022/05/30 11:47:24;;;;;;;3.40;1.27;;;;;;;16.85;40.17;101246.22;5116702;28;20028;-84
2022/05/30 11:50:00;;;;;;;4.37;1.60;;;;;;;16.82;40.28;101246.72;5116966;27;20031;-83
2022/05/30 11:53:03;;;;;;;4.55;1.23;;;;;;;17.35;40.57;101239.09;5116335;28;20028;-84
2022/05/30 11:55:47;;;;;;;4.22;1.23;;;;;;;17.83;39.08;101236.72;5115717;28;20078;-84
2022/05/30 11:58:41;;;;;;;3.53;1.50;;;;;;;18.57;38.72;101238.16;5116044;28;20031;-84
2022/05/30 12:01:08;;;;;;;4.00;1.50;;;;;;;19.23;35.68;101228.84;5117183;28;20100;-84
2022/05/30 12:04:02;;;;;;;3.53;1.40;;;;;;;20.09;36.49;101241.47;5115559;28;20031;-83